Time;durP1;ratioP1;P1;durP2;ratioP2;P2;SDS_P1;SDS_P2;PMS_P1;PMS_P2;Temp;Humidity;BMP_temperature;BMP_pressure;BME280_temperature;BME280_humidity;BME280_pressure;Samples;Min_cycle;Max_cycle;Signal;HPM_P1;HPM_P2
2023/12/19 00:01:11;;;;;;;7.22;3.35;;;4.40;70.90;;;;;;2262521;55;21054;-67
2023/12/19 00:03:39;;;;;;;6.93;3.53;;;4.30;70.80;;;;;;2493747;55;21014;-67
2023/12/19 00:06:11;;;;;;;5.75;3.35;;;4.30;70.80;;;;;;2491395;54;20967;-68
2023/12/19 00:08:42;;;;;;;7.97;4.17;;;4.30;70.70;;;;;;2255948;56;21010;-67
2023/12/19 00:11:09;;;;;;;9.82;4.85;;;4.30;70.70;;;;;;2515150;54;20936;-67
2023/12/19 00:13:43;;;;;;;8.60;4.50;;;4.30;70.80;;;;;;2268466;55;21086;-67
2023/12/19 00:16:12;;;;;;;7.25;3.78;;;4.30;70.80;;;;;;2266306;56;22006;-67
2023/12/19 00:18:39;;;;;;;7.22;3.87;;;4.30;70.80;;;;;;2260912;55;21018;-68
2023/12/19 00:21:06;;;;;;;6.95;3.80;;;4.30;70.80;;;;;;2260468;55;20939;-67
2023/12/19 00:23:33;;;;;;;9.40;4.35;;;4.30;70.90;;;;;;2480941;54;21187;-67
2023/12/19 00:25:59;;;;;;;7.53;4.30;;;4.30;71.10;;;;;;2234170;57;21045;-68
2023/12/19 00:28:27;;;;;;;7.28;4.30;;;4.30;71.20;;;;;;2252344;56;21471;-67
2023/12/19 00:30:54;;;;;;;6.47;3.33;;;4.30;71.30;;;;;;2260504;56;20951;-67
2023/12/19 00:33:22;;;;;;;6.32;3.50;;;4.30;71.30;;;;;;2496502;55;21614;-67
2023/12/19 00:35:51;;;;;;;6.95;3.40;;;4.30;71.30;;;;;;2492852;54;20955;-68
2023/12/19 00:38:19;;;;;;;6.18;3.05;;;4.40;71.50;;;;;;2261609;55;20990;-68
2023/12/19 00:40:46;;;;;;;6.80;3.20;;;4.30;71.50;;;;;;2492772;55;20939;-68
2023/12/19 00:43:13;;;;;;;5.93;3.00;;;4.40;71.50;;;;;;2263384;55;21011;-68
2023/12/19 00:45:43;;;;;;;5.43;2.87;;;4.40;71.50;;;;;;2279303;55;20939;-68
2023/12/19 00:48:11;;;;;;;5.12;2.47;;;4.50;71.50;;;;;;2300721;56;20955;-67
2023/12/19 00:50:38;;;;;;;5.65;2.92;;;4.40;71.40;;;;;;2537197;54;21249;-67
2023/12/19 00:53:04;;;;;;;6.45;3.22;;;4.40;71.40;;;;;;2537631;54;21000;-67
2023/12/19 00:55:31;;;;;;;5.75;2.60;;;4.40;71.40;;;;;;2300254;55;21504;-68
2023/12/19 00:57:57;;;;;;;6.05;2.80;;;4.40;71.50;;;;;;2300045;56;21457;-67
2023/12/19 01:00:24;;;;;;;5.32;2.58;;;4.40;71.50;;;;;;2518515;54;20959;-68
2023/12/19 01:03:00;;;;;;;6.20;3.50;;;4.40;71.50;;;;;;2536990;54;20935;-67
2023/12/19 01:05:26;;;;;;;6.03;3.25;;;4.50;71.60;;;;;;2536883;54;21743;-68
2023/12/19 01:07:54;;;;;;;6.55;3.50;;;4.50;71.70;;;;;;2299964;56;21015;-67
2023/12/19 01:10:21;;;;;;;6.10;3.40;;;4.50;71.70;;;;;;2300898;56;21497;-67
2023/12/19 01:12:50;;;;;;;7.65;3.60;;;4.50;71.70;;;;;;2535632;54;20931;-68
2023/12/19 01:15:17;;;;;;;6.93;3.17;;;4.50;71.70;;;;;;2287605;56;21051;-68
2023/12/19 01:17:45;;;;;;;6.22;3.20;;;4.50;71.70;;;;;;2281123;56;21610;-67
2023/12/19 01:20:11;;;;;;;5.45;2.70;;;4.50;71.60;;;;;;2517976;54;21026;-67
2023/12/19 01:22:38;;;;;;;6.18;3.33;;;4.50;71.40;;;;;;2300100;55;21064;-67
2023/12/19 01:25:04;;;;;;;5.40;2.90;;;4.50;71.30;;;;;;2536801;54;20955;-68
2023/12/19 01:27:31;;;;;;;6.37;3.30;;;4.50;71.20;;;;;;2537354;54;20984;-67
2023/12/19 01:29:58;;;;;;;6.60;3.17;;;4.50;71.10;;;;;;2507466;54;21236;-68
2023/12/19 01:32:25;;;;;;;8.32;3.55;;;4.50;71.00;;;;;;2537797;54;20980;-67
2023/12/19 01:34:52;;;;;;;7.32;3.78;;;4.50;71.00;;;;;;2299512;56;20951;-67
2023/12/19 01:37:19;;;;;;;6.53;3.37;;;4.50;71.00;;;;;;2536840;54;21046;-67
2023/12/19 01:39:45;;;;;;;7.65;3.37;;;4.50;71.00;;;;;;2536833;54;21014;-67
2023/12/19 01:42:13;;;;;;;6.87;2.92;;;4.50;71.00;;;;;;2536599;54;21247;-68
2023/12/19 01:44:39;;;;;;;7.22;3.28;;;4.50;70.80;;;;;;2524759;54;21014;-67
2023/12/19 01:47:05;;;;;;;7.97;3.72;;;4.50;70.70;;;;;;2495090;54;21007;-68
2023/12/19 01:49:32;;;;;;;8.40;3.40;;;4.50;70.70;;;;;;2494923;55;20931;-67
2023/12/19 01:51:58;;;;;;;5.75;2.90;;;4.40;71.30;;;;;;2486516;54;20947;-67
2023/12/19 01:54:27;;;;;;;5.90;2.75;;;4.40;70.60;;;;;;2537208;54;20994;-68
2023/12/19 01:56:54;;;;;;;6.10;2.87;;;4.40;70.60;;;;;;2299463;55;21485;-68
2023/12/19 01:59:21;;;;;;;6.10;2.87;;;4.40;70.60;;;;;;2534317;54;20931;-68
2023/12/19 02:01:48;;;;;;;6.35;3.15;;;4.40;70.50;;;;;;2511340;54;21819;-68
2023/12/19 02:04:14;;;;;;;10.27;4.57;;;4.40;70.50;;;;;;2300005;56;20967;-68
2023/12/19 02:06:40;;;;;;;9.40;4.07;;;4.40;70.50;;;;;;2300089;56;20951;-67
2023/12/19 02:09:08;;;;;;;8.70;3.72;;;4.30;70.50;;;;;;2299843;56;20943;-67
2023/12/19 02:11:35;;;;;;;7.00;3.42;;;4.40;70.50;;;;;;2536936;54;20976;-67
2023/12/19 02:14:01;;;;;;;6.68;3.10;;;4.30;70.40;;;;;;2536233;54;20936;-67
2023/12/19 02:16:37;;;;;;;5.90;2.92;;;4.30;70.30;;;;;;2242347;56;20975;-67
2023/12/19 02:19:03;;;;;;;7.68;3.50;;;4.30;70.10;;;;;;2488143;55;21763;-67
2023/12/19 02:21:32;;;;;;;7.78;3.90;;;4.30;70.10;;;;;;2260744;56;21034;-67
2023/12/19 02:23:59;;;;;;;7.15;3.53;;;4.20;70.10;;;;;;2488381;55;21082;-67
2023/12/19 02:26:28;;;;;;;6.28;3.50;;;4.20;70.20;;;;;;2266120;56;20931;-68
2023/12/19 02:28:55;;;;;;;6.65;3.03;;;4.20;70.30;;;;;;2289041;56;21513;-68
2023/12/19 02:31:22;;;;;;;5.68;2.80;;;4.20;70.40;;;;;;2526178;54;20993;-67
2023/12/19 02:33:50;;;;;;;5.22;2.47;;;4.20;70.40;;;;;;2291042;56;20969;-67
2023/12/19 02:36:17;;;;;;;4.65;2.35;;;4.20;70.40;;;;;;2290674;56;20956;-67
2023/12/19 02:38:46;;;;;;;5.75;2.95;;;4.20;70.30;;;;;;2290746;56;20940;-67
2023/12/19 02:41:12;;;;;;;5.18;2.90;;;4.10;70.20;;;;;;2525223;54;20906;-67
2023/12/19 02:43:39;;;;;;;6.35;3.40;;;4.20;70.40;;;;;;2525082;54;20925;-67
2023/12/19 02:46:09;;;;;;;6.40;2.80;;;4.10;70.20;;;;;;2290672;56;21549;-67
2023/12/19 02:48:35;;;;;;;5.12;2.70;;;4.10;70.20;;;;;;2526655;54;20942;-67
2023/12/19 02:51:02;;;;;;;5.20;2.83;;;4.10;70.30;;;;;;2290849;56;20982;-67
2023/12/19 02:53:29;;;;;;;5.37;2.42;;;4.10;70.30;;;;;;2478527;54;21926;-68
2023/12/19 02:55:56;;;;;;;12.40;5.50;;;4.10;70.20;;;;;;2503764;54;21785;-67
2023/12/19 02:58:25;;;;;;;12.73;5.82;;;4.10;70.10;;;;;;2289675;56;20993;-67
2023/12/19 03:00:54;;;;;;;16.95;7.03;;;4.00;70.00;;;;;;2290727;56;21007;-67
2023/12/19 03:03:20;;;;;;;14.50;7.18;;;4.00;70.00;;;;;;2525606;54;20989;-67
2023/12/19 03:05:47;;;;;;;15.45;6.70;;;4.00;70.00;;;;;;2526056;54;21221;-67
2023/12/19 03:08:17;;;;;;;14.75;6.82;;;4.00;70.00;;;;;;2522758;54;20906;-67
2023/12/19 03:10:43;;;;;;;18.87;8.00;;;4.00;70.00;;;;;;2489974;54;20949;-67
2023/12/19 03:13:11;;;;;;;17.98;7.93;;;3.90;69.90;;;;;;2523983;54;22095;-67
2023/12/19 03:15:38;;;;;;;15.15;6.78;;;3.90;70.00;;;;;;2486559;54;21524;-67
2023/12/19 03:18:05;;;;;;;14.15;6.85;;;3.90;70.00;;;;;;2484694;54;20992;-67
2023/12/19 03:20:35;;;;;;;13.27;6.80;;;3.90;70.00;;;;;;2526336;54;20921;-67
2023/12/19 03:23:02;;;;;;;14.52;6.65;;;3.90;70.00;;;;;;2525430;54;20977;-67
2023/12/19 03:25:28;;;;;;;10.95;5.32;;;3.80;69.80;;;;;;2508411;54;20991;-67
2023/12/19 03:27:58;;;;;;;9.60;4.90;;;3.80;69.60;;;;;;2503372;54;21016;-67
2023/12/19 03:30:27;;;;;;;9.05;4.93;;;3.80;69.60;;;;;;2291040;56;20977;-68
2023/12/19 03:32:55;;;;;;;9.23;4.40;;;3.80;69.70;;;;;;2289945;55;21673;-67
2023/12/19 03:35:23;;;;;;;9.20;4.30;;;3.70;69.80;;;;;;2526225;54;20969;-68
2023/12/19 03:37:55;;;;;;;7.35;3.72;;;3.70;69.80;;;;;;2490260;54;20943;-67
2023/12/19 03:40:22;;;;;;;6.50;3.45;;;3.70;69.80;;;;;;2493514;54;21001;-68
2023/12/19 03:42:48;;;;;;;6.45;3.20;;;3.70;69.90;;;;;;2290071;56;21011;-67
2023/12/19 03:45:14;;;;;;;6.05;3.08;;;3.70;69.90;;;;;;2290152;56;21733;-66
2023/12/19 03:47:41;;;;;;;5.80;2.45;;;3.70;69.90;;;;;;2291119;56;20981;-67
2023/12/19 03:50:10;;;;;;;4.80;2.28;;;3.70;70.00;;;;;;2290293;56;20922;-67
2023/12/19 03:52:37;;;;;;;4.22;2.22;;;3.60;69.90;;;;;;2291484;56;20926;-67
2023/12/19 03:55:04;;;;;;;4.78;2.55;;;3.60;69.90;;;;;;2497003;54;20994;-67
2023/12/19 03:57:32;;;;;;;5.10;2.22;;;3.60;70.00;;;;;;2516566;54;21041;-67
2023/12/19 03:59:58;;;;;;;5.85;2.65;;;3.60;70.00;;;;;;2290037;56;21535;-66
2023/12/19 04:02:25;;;;;;;4.80;2.40;;;3.60;70.00;;;;;;2291836;56;22108;-67
2023/12/19 04:04:51;;;;;;;4.03;2.10;;;3.70;70.10;;;;;;2291229;55;21005;-67
2023/12/19 04:07:17;;;;;;;4.43;2.00;;;3.60;70.00;;;;;;2290665;56;20926;-67
2023/12/19 04:09:44;;;;;;;4.72;2.00;;;3.60;70.00;;;;;;2526736;54;21288;-67
2023/12/19 04:12:13;;;;;;;4.12;2.05;;;3.60;69.90;;;;;;2290797;56;20998;-67
2023/12/19 04:14:40;;;;;;;3.75;1.70;;;3.60;70.00;;;;;;2291505;56;21013;-67
2023/12/19 04:17:07;;;;;;;4.47;2.12;;;3.50;69.90;;;;;;2290495;56;21573;-67
2023/12/19 04:19:33;;;;;;;4.05;1.90;;;3.50;69.80;;;;;;2526906;54;20906;-67
2023/12/19 04:22:02;;;;;;;4.43;2.08;;;3.60;69.90;;;;;;2526259;54;20913;-67
2023/12/19 04:24:29;;;;;;;4.68;2.30;;;3.50;69.80;;;;;;2519213;54;21355;-67
2023/12/19 04:26:55;;;;;;;4.22;2.17;;;3.50;69.90;;;;;;2263872;56;21044;-66
2023/12/19 04:29:22;;;;;;;4.22;2.05;;;3.50;69.90;;;;;;2500594;54;21828;-67
2023/12/19 04:31:48;;;;;;;5.68;2.35;;;3.50;69.80;;;;;;2278515;56;21404;-67
2023/12/19 04:34:18;;;;;;;6.95;3.10;;;3.50;69.70;;;;;;2525484;54;20914;-67
2023/12/19 04:36:47;;;;;;;6.35;3.10;;;3.40;69.60;;;;;;2285366;56;20955;-66
2023/12/19 04:39:15;;;;;;;5.47;2.78;;;3.40;69.60;;;;;;2499583;54;20986;-67
2023/12/19 04:41:42;;;;;;;6.22;3.33;;;3.40;69.70;;;;;;2291736;56;20925;-67
2023/12/19 04:44:10;;;;;;;6.18;3.00;;;3.40;69.60;;;;;;2290774;56;20934;-67
2023/12/19 04:46:36;;;;;;;6.35;3.00;;;3.30;69.40;;;;;;2291472;56;20945;-67
2023/12/19 04:49:03;;;;;;;7.32;3.37;;;3.30;69.40;;;;;;2290353;55;20922;-67
2023/12/19 04:51:30;;;;;;;8.40;3.80;;;3.30;69.40;;;;;;2526830;54;20934;-66
2023/12/19 04:53:57;;;;;;;5.57;3.03;;;3.30;69.50;;;;;;2291294;56;21403;-67
2023/12/19 04:56:23;;;;;;;6.65;3.25;;;3.30;69.50;;;;;;2290739;56;21031;-67
2023/12/19 04:58:49;;;;;;;7.10;3.50;;;3.20;69.40;;;;;;2513996;54;20963;-67
2023/12/19 05:01:16;;;;;;;6.35;3.12;;;3.30;69.60;;;;;;2499369;54;20910;-67
2023/12/19 05:03:42;;;;;;;6.80;3.37;;;3.20;69.60;;;;;;2291229;56;21017;-66
2023/12/19 05:06:09;;;;;;;6.43;3.37;;;3.20;69.80;;;;;;2525781;54;20938;-67
2023/12/19 05:08:35;;;;;;;6.22;3.33;;;3.20;69.90;;;;;;2526834;54;20909;-67
2023/12/19 05:11:03;;;;;;;7.60;3.40;;;3.20;70.00;;;;;;2264397;56;20900;-67
2023/12/19 05:13:39;;;;;;;5.97;3.08;;;3.20;70.00;;;;;;2525960;54;20985;-67
2023/12/19 05:16:15;;;;;;;6.50;2.95;;;3.20;70.00;;;;;;2525854;54;20926;-67
2023/12/19 05:18:44;;;;;;;6.07;3.28;;;3.20;70.00;;;;;;2290952;56;20942;-67
2023/12/19 05:21:10;;;;;;;7.32;3.67;;;3.20;70.00;;;;;;2290695;56;20957;-66
2023/12/19 05:23:39;;;;;;;6.50;3.25;;;3.20;69.90;;;;;;2291933;56;20905;-66
2023/12/19 05:26:06;;;;;;;7.65;3.25;;;3.20;69.90;;;;;;2291737;56;20973;-67
2023/12/19 05:28:36;;;;;;;9.27;4.07;;;3.20;69.90;;;;;;2290842;56;21576;-66
2023/12/19 05:31:02;;;;;;;5.85;2.90;;;3.20;69.90;;;;;;2290965;56;20930;-67
2023/12/19 05:33:29;;;;;;;7.22;3.25;;;3.10;69.80;;;;;;2526299;54;20939;-67
2023/12/19 05:35:58;;;;;;;6.78;3.40;;;3.10;69.80;;;;;;2525889;54;20937;-67
2023/12/19 05:38:29;;;;;;;10.98;4.22;;;3.10;69.70;;;;;;2525520;54;20918;-66
2023/12/19 05:40:58;;;;;;;9.23;4.43;;;3.10;69.80;;;;;;2291018;56;20989;-66
2023/12/19 05:43:24;;;;;;;8.18;3.70;;;3.10;69.80;;;;;;2290600;56;21796;-67
2023/12/19 05:45:52;;;;;;;9.15;4.53;;;3.10;69.80;;;;;;2526358;54;20929;-67
2023/12/19 05:48:20;;;;;;;10.77;5.12;;;3.10;69.80;;;;;;2290808;56;20978;-67
2023/12/19 05:50:47;;;;;;;8.68;4.65;;;3.10;69.90;;;;;;2291680;56;20979;-66
2023/12/19 05:53:13;;;;;;;7.53;4.12;;;3.10;69.90;;;;;;2290660;56;21115;-66
2023/12/19 05:55:45;;;;;;;8.18;3.92;;;3.10;69.90;;;;;;2526848;54;21068;-66
2023/12/19 05:58:13;;;;;;;10.20;4.75;;;3.10;69.70;;;;;;2290192;56;20965;-67
2023/12/19 06:00:48;;;;;;;8.82;4.82;;;3.00;69.20;;;;;;2291933;56;21018;-67
2023/12/19 06:03:15;;;;;;;10.60;6.30;;;3.00;69.10;;;;;;2290441;56;20934;-67
2023/12/19 06:05:41;;;;;;;16.62;8.05;;;3.00;69.20;;;;;;2526457;54;21044;-67
2023/12/19 06:08:07;;;;;;;10.00;6.62;;;3.00;69.40;;;;;;2290831;56;20914;-66
2023/12/19 06:10:36;;;;;;;11.00;6.55;;;2.70;69.20;;;;;;2488794;55;21458;-67
2023/12/19 06:13:02;;;;;;;8.45;5.53;;;2.90;69.50;;;;;;2488783;55;21007;-67
2023/12/19 06:15:30;;;;;;;8.20;4.80;;;2.90;69.40;;;;;;2260188;55;20994;-66
2023/12/19 06:17:56;;;;;;;9.50;4.70;;;2.90;69.30;;;;;;2489040;55;20942;-67
2023/12/19 06:20:25;;;;;;;7.60;4.78;;;2.90;69.30;;;;;;2260217;55;21428;-66
2023/12/19 06:22:51;;;;;;;9.25;5.10;;;2.80;69.40;;;;;;2260450;55;21022;-66
2023/12/19 06:25:18;;;;;;;8.05;4.40;;;2.80;69.60;;;;;;2260654;55;20982;-67
2023/12/19 06:27:46;;;;;;;8.38;4.22;;;2.80;69.70;;;;;;2261095;55;21388;-67
2023/12/19 06:30:13;;;;;;;8.20;4.30;;;2.80;69.80;;;;;;2489207;55;21866;-67
2023/12/19 06:32:42;;;;;;;9.07;4.35;;;2.80;69.90;;;;;;2520172;54;20956;-67
2023/12/19 06:35:08;;;;;;;7.07;3.75;;;2.80;70.00;;;;;;2489065;55;20990;-67
2023/12/19 06:37:40;;;;;;;7.07;3.92;;;2.80;70.00;;;;;;2283684;55;20920;-66
2023/12/19 06:40:08;;;;;;;9.30;4.03;;;2.80;70.70;;;;;;2499065;54;21039;-67
2023/12/19 06:42:35;;;;;;;7.78;4.43;;;2.80;70.00;;;;;;2265420;55;21589;-67
2023/12/19 06:45:01;;;;;;;8.27;4.53;;;2.80;70.00;;;;;;2490785;55;20983;-66
2023/12/19 06:47:35;;;;;;;9.98;4.82;;;2.80;70.00;;;;;;2495993;55;20947;-66
2023/12/19 06:50:03;;;;;;;10.10;5.05;;;2.80;70.10;;;;;;2496760;54;20919;-66
2023/12/19 06:52:30;;;;;;;8.55;4.53;;;2.80;70.20;;;;;;2299775;55;21268;-66
2023/12/19 06:54:56;;;;;;;7.35;4.28;;;2.80;70.20;;;;;;2300395;56;21091;-66
2023/12/19 06:57:26;;;;;;;9.25;4.97;;;2.80;70.10;;;;;;2536154;54;21039;-66
2023/12/19 06:59:53;;;;;;;7.95;4.07;;;2.80;70.00;;;;;;2299201;55;20939;-66
2023/12/19 07:02:19;;;;;;;8.18;3.87;;;2.80;70.00;;;;;;2299966;55;21397;-67
2023/12/19 07:04:46;;;;;;;6.93;3.83;;;2.80;69.80;;;;;;2537790;54;20968;-67
2023/12/19 07:07:13;;;;;;;9.05;4.03;;;2.80;69.80;;;;;;2300040;56;20999;-67
2023/12/19 07:09:39;;;;;;;15.30;3.97;;;2.80;69.70;;;;;;2299903;55;21015;-66
2023/12/19 07:12:06;;;;;;;10.18;4.60;;;2.80;69.70;;;;;;2537416;54;21366;-67
2023/12/19 07:14:37;;;;;;;7.93;4.70;;;2.80;69.70;;;;;;2301207;55;20943;-67
2023/12/19 07:17:04;;;;;;;10.65;5.35;;;2.80;69.70;;;;;;2300560;55;20924;-67
2023/12/19 07:19:30;;;;;;;11.38;5.75;;;2.80;69.80;;;;;;2290133;55;20969;-67
2023/12/19 07:21:58;;;;;;;9.95;5.65;;;2.80;69.90;;;;;;2535634;54;21094;-67
2023/12/19 07:24:25;;;;;;;10.52;6.25;;;2.80;70.10;;;;;;2535943;54;20944;-67
2023/12/19 07:26:52;;;;;;;10.45;5.57;;;2.80;70.20;;;;;;2299762;56;20947;-66
2023/12/19 07:29:19;;;;;;;15.13;6.40;;;2.80;70.30;;;;;;2299251;55;20976;-67
2023/12/19 07:31:45;;;;;;;12.25;5.60;;;2.80;70.30;;;;;;2304137;55;21026;-66
2023/12/19 07:34:11;;;;;;;12.05;6.20;;;2.80;70.30;;;;;;2287772;55;21024;-67
2023/12/19 07:36:38;;;;;;;12.60;7.03;;;2.80;70.30;;;;;;2489957;55;21540;-67
2023/12/19 07:39:05;;;;;;;14.45;6.65;;;2.80;70.10;;;;;;2260764;55;21110;-67
2023/12/19 07:41:31;;;;;;;12.07;6.62;;;2.80;70.00;;;;;;2265812;56;21053;-67
2023/12/19 07:43:58;;;;;;;12.13;6.10;;;2.80;70.00;;;;;;2472198;55;21639;-67
2023/12/19 07:46:25;;;;;;;12.05;6.18;;;2.80;70.10;;;;;;2264827;56;20970;-67
2023/12/19 07:49:01;;;;;;;9.80;5.45;;;2.80;70.20;;;;;;2255241;55;20943;-66
2023/12/19 07:51:27;;;;;;;8.90;5.10;;;2.80;70.30;;;;;;2261063;55;20958;-67
2023/12/19 07:53:54;;;;;;;11.05;5.35;;;2.80;70.40;;;;;;2261329;55;21044;-67
2023/12/19 07:56:21;;;;;;;9.15;5.55;;;2.80;70.50;;;;;;2495899;54;20944;-67
2023/12/19 07:58:47;;;;;;;9.75;5.32;;;2.80;70.50;;;;;;2261957;56;20983;-67
2023/12/19 08:01:16;;;;;;;11.00;6.05;;;2.90;70.80;;;;;;2266190;56;20962;-66
2023/12/19 08:03:43;;;;;;;10.57;5.62;;;2.90;70.80;;;;;;2264814;55;21046;-67
2023/12/19 08:06:12;;;;;;;11.00;6.37;;;2.90;70.90;;;;;;2255164;56;21514;-67
2023/12/19 08:08:40;;;;;;;13.27;6.55;;;2.90;70.90;;;;;;2253066;55;21115;-67
2023/12/19 08:11:07;;;;;;;11.10;6.20;;;2.90;70.90;;;;;;2520969;55;20999;-67
2023/12/19 08:13:36;;;;;;;12.65;7.00;;;3.00;71.00;;;;;;2286151;56;21497;-67
2023/12/19 08:16:04;;;;;;;12.57;7.32;;;3.00;71.00;;;;;;2520816;54;21606;-67
2023/12/19 08:18:31;;;;;;;13.10;6.93;;;3.00;71.10;;;;;;2286255;56;20960;-67
2023/12/19 08:20:58;;;;;;;9.73;6.22;;;3.00;71.20;;;;;;2285990;56;21035;-66
2023/12/19 08:23:24;;;;;;;11.95;6.25;;;3.10;71.40;;;;;;2520676;54;21043;-67
2023/12/19 08:25:50;;;;;;;10.25;5.62;;;3.10;71.40;;;;;;2287028;56;20956;-67
2023/12/19 08:28:17;;;;;;;13.00;6.95;;;3.10;71.60;;;;;;2520451;55;21008;-67
2023/12/19 08:30:45;;;;;;;11.32;6.30;;;3.20;71.50;;;;;;2519914;54;21095;-67
2023/12/19 08:33:13;;;;;;;10.27;5.07;;;3.20;71.50;;;;;;2498095;54;20994;-67
2023/12/19 08:35:41;;;;;;;10.05;5.50;;;3.20;71.50;;;;;;2488940;55;21006;-67
2023/12/19 08:38:08;;;;;;;12.25;6.50;;;3.20;71.50;;;;;;2466819;54;20982;-67
2023/12/19 08:40:34;;;;;;;11.38;6.03;;;3.30;71.60;;;;;;2267330;55;20954;-67
2023/12/19 08:43:00;;;;;;;13.15;6.80;;;3.30;71.70;;;;;;2272946;55;21835;-67
2023/12/19 08:45:30;;;;;;;9.38;5.68;;;3.40;71.80;;;;;;2492155;55;21290;-67
2023/12/19 08:47:56;;;;;;;10.68;6.78;;;3.40;71.80;;;;;;2227551;56;21050;-67
2023/12/19 08:50:25;;;;;;;10.90;5.90;;;3.40;71.70;;;;;;2488920;54;21384;-68
2023/12/19 08:52:53;;;;;;;11.85;6.03;;;3.50;71.90;;;;;;2260661;56;21434;-67
2023/12/19 08:55:20;;;;;;;9.85;5.97;;;3.50;71.80;;;;;;2260645;56;20963;-68
2023/12/19 08:57:48;;;;;;;11.75;6.25;;;3.50;71.80;;;;;;2261197;56;21507;-67
2023/12/19 09:00:18;;;;;;;11.75;6.50;;;3.60;71.80;;;;;;2469475;54;21074;-67
2023/12/19 09:02:44;;;;;;;11.73;6.43;;;3.60;71.80;;;;;;2262763;56;21090;-67
2023/12/19 09:05:15;;;;;;;10.23;5.90;;;3.70;71.90;;;;;;2489853;54;20952;-67
2023/12/19 09:07:41;;;;;;;11.12;6.47;;;3.70;71.90;;;;;;2488882;55;20947;-67
2023/12/19 09:10:13;;;;;;;11.45;6.55;;;3.70;71.90;;;;;;2266033;56;20951;-67
2023/12/19 09:12:39;;;;;;;14.70;8.80;;;3.80;72.00;;;;;;2260553;55;21109;-67
2023/12/19 09:15:07;;;;;;;14.27;8.88;;;3.80;72.00;;;;;;2495474;54;20999;-67
2023/12/19 09:17:33;;;;;;;14.30;8.52;;;3.80;71.90;;;;;;2489049;55;21400;-68
2023/12/19 09:20:03;;;;;;;16.67;11.00;;;3.90;72.10;;;;;;2489339;55;20975;-68
2023/12/19 09:22:30;;;;;;;13.70;9.13;;;3.90;72.10;;;;;;2502197;55;21286;-67
2023/12/19 09:24:56;;;;;;;13.70;9.15;;;4.00;72.20;;;;;;2489420;55;21412;-68
2023/12/19 09:27:24;;;;;;;12.82;8.73;;;4.00;72.20;;;;;;2260941;55;20974;-67
2023/12/19 09:29:51;;;;;;;15.07;8.48;;;4.00;72.20;;;;;;2260604;56;21031;-67
2023/12/19 09:32:18;;;;;;;12.52;7.40;;;4.10;72.30;;;;;;2489109;55;20979;-68
2023/12/19 09:34:46;;;;;;;13.13;8.35;;;4.10;72.30;;;;;;2259882;56;20982;-68
2023/12/19 09:37:13;;;;;;;12.25;6.60;;;4.20;72.40;;;;;;2488851;54;21058;-68
2023/12/19 09:39:39;;;;;;;12.95;6.70;;;4.20;72.50;;;;;;2266151;56;21428;-67
2023/12/19 09:42:07;;;;;;;11.68;7.32;;;4.30;72.60;;;;;;2260492;55;20925;-67
2023/12/19 09:44:33;;;;;;;11.95;6.93;;;4.30;72.60;;;;;;2496191;54;20998;-67
2023/12/19 09:46:59;;;;;;;10.20;6.72;;;4.40;72.60;;;;;;2261224;55;21066;-68
2023/12/19 09:49:28;;;;;;;10.68;6.70;;;4.40;72.60;;;;;;2496150;54;21042;-68
2023/12/19 09:51:56;;;;;;;10.40;6.35;;;4.50;72.80;;;;;;2489206;55;20935;-68
2023/12/19 09:54:22;;;;;;;9.93;5.97;;;4.50;72.70;;;;;;2260683;55;20954;-68
2023/12/19 09:56:49;;;;;;;10.07;6.07;;;4.60;72.80;;;;;;2260576;56;21030;-68
2023/12/19 09:59:17;;;;;;;11.45;6.53;;;4.60;72.80;;;;;;2260958;56;20963;-69
2023/12/19 10:01:43;;;;;;;12.00;7.15;;;4.70;72.90;;;;;;2490044;54;20943;-69
2023/12/19 10:04:13;;;;;;;11.25;6.80;;;4.70;73.00;;;;;;2261381;56;20963;-69
2023/12/19 10:06:42;;;;;;;12.27;7.47;;;4.80;73.10;;;;;;2489767;54;21018;-68
2023/12/19 10:09:15;;;;;;;12.85;6.87;;;4.80;73.10;;;;;;2489880;54;21259;-69
2023/12/19 10:11:41;;;;;;;11.60;6.72;;;4.90;73.20;;;;;;2489925;55;22183;-69
2023/12/19 10:14:11;;;;;;;11.93;6.85;;;4.90;73.10;;;;;;2261292;56;20963;-69
2023/12/19 10:16:40;;;;;;;14.63;6.75;;;5.00;73.20;;;;;;2489507;54;21030;-69
2023/12/19 10:19:07;;;;;;;11.40;6.80;;;5.10;73.30;;;;;;2490165;54;20942;-68
2023/12/19 10:21:36;;;;;;;11.80;6.93;;;5.10;73.90;;;;;;2489771;54;20990;-70
2023/12/19 10:24:25;;;;;;;10.65;6.35;;;5.10;73.10;;;;;;2490091;54;21026;-69
2023/12/19 10:27:00;;;;;;;10.40;6.68;;;5.20;73.00;;;;;;2260805;56;20955;-69
2023/12/19 10:29:35;;;;;;;10.73;6.68;;;5.30;73.20;;;;;;2261054;56;21869;-69
2023/12/19 10:32:17;;;;;;;11.95;6.82;;;5.30;73.20;;;;;;2489614;54;20955;-69
2023/12/19 10:34:47;;;;;;;9.73;6.03;;;5.40;73.00;;;;;;2489614;54;21031;-70
2023/12/19 10:37:20;;;;;;;9.70;5.32;;;5.40;73.10;;;;;;2489473;54;21070;-69
2023/12/19 10:39:49;;;;;;;12.15;6.22;;;5.50;73.10;;;;;;2258499;56;21317;-69
2023/12/19 10:42:18;;;;;;;15.07;8.00;;;5.50;73.10;;;;;;2477944;55;20945;-69
2023/12/19 10:44:45;;;;;;;10.00;5.75;;;5.60;73.10;;;;;;2489199;55;20978;-69
2023/12/19 10:47:11;;;;;;;10.23;6.35;;;5.60;73.10;;;;;;2495964;54;21013;-69
2023/12/19 10:49:38;;;;;;;9.25;5.65;;;5.60;73.10;;;;;;2260226;55;21038;-68
2023/12/19 10:52:07;;;;;;;8.90;5.65;;;5.70;73.10;;;;;;2265947;56;20990;-69
2023/12/19 10:54:35;;;;;;;10.80;6.22;;;5.80;73.20;;;;;;2244798;56;20994;-69
2023/12/19 10:58:03;;;;;;;10.18;6.18;;;5.80;73.20;;;;;;2253380;56;21447;-69
2023/12/19 11:00:30;;;;;;;9.88;5.72;;;5.80;72.70;;;;;;2489326;55;20975;-69
2023/12/19 11:06:31;;;;;;;9.73;5.70;;;5.90;73.30;;;;;;2259787;56;20958;-69
2023/12/19 11:09:03;;;;;;;8.32;4.87;;;6.00;72.60;;;;;;2263955;55;20974;-69
2023/12/19 11:11:36;;;;;;;10.18;5.40;;;6.10;73.60;;;;;;2261854;56;21030;-70
2023/12/19 11:14:02;;;;;;;8.45;5.20;;;6.20;73.80;;;;;;2459780;55;20978;-69
2023/12/19 11:16:48;;;;;;;11.07;5.93;;;6.20;74.10;;;;;;2269528;55;21007;-70
2023/12/19 11:19:22;;;;;;;9.10;5.43;;;6.30;74.30;;;;;;2537299;54;21051;-70
2023/12/19 11:22:41;;;;;;;8.45;5.25;;;6.40;74.40;;;;;;2299762;55;20935;-70
2023/12/19 11:25:30;;;;;;;9.73;4.93;;;6.50;74.50;;;;;;2229264;56;21072;-70
2023/12/19 11:28:03;;;;;;;7.47;4.47;;;6.50;74.40;;;;;;2491846;55;21138;-69
2023/12/19 11:30:50;;;;;;;8.65;5.37;;;6.70;74.40;;;;;;2263063;56;20938;-70
2023/12/19 11:33:28;;;;;;;10.88;6.22;;;6.70;74.20;;;;;;2242594;56;20995;-69
2023/12/19 11:35:54;;;;;;;9.13;5.70;;;6.80;74.60;;;;;;2474819;55;21552;-69
2023/12/19 11:38:25;;;;;;;9.57;5.60;;;6.90;75.00;;;;;;2489819;55;20970;-70
2023/12/19 11:40:56;;;;;;;8.38;5.28;;;7.00;75.20;;;;;;2489559;55;21059;-70
2023/12/19 11:43:56;;;;;;;9.70;5.70;;;7.10;75.30;;;;;;2496553;54;21040;-70
2023/12/19 11:46:22;;;;;;;10.05;5.95;;;7.20;74.90;;;;;;2489547;55;20998;-70
2023/12/19 11:48:49;;;;;;;10.65;6.32;;;7.30;75.50;;;;;;2489294;54;20955;-70
2023/12/19 11:51:50;;;;;;;9.48;5.82;;;7.40;75.50;;;;;;2261168;56;21046;-69
2023/12/19 11:54:17;;;;;;;9.98;6.60;;;7.50;75.10;;;;;;2489377;54;21062;-70
2023/12/19 11:56:44;;;;;;;10.23;6.32;;;7.60;75.40;;;;;;2488105;54;20957;-70
2023/12/19 11:59:11;;;;;;;9.23;6.12;;;7.70;75.30;;;;;;2260499;56;20995;-70
2023/12/19 12:01:44;;;;;;;9.70;6.37;;;7.70;75.10;;;;;;2495614;55;21512;-70
2023/12/19 12:04:11;;;;;;;9.80;6.70;;;7.80;75.00;;;;;;2260915;56;21444;-70
2023/12/19 12:06:41;;;;;;;9.85;5.53;;;7.90;75.00;;;;;;2260616;56;21050;-70
2023/12/19 12:09:10;;;;;;;8.82;5.68;;;7.90;74.80;;;;;;2490201;55;21042;-69
2023/12/19 12:11:48;;;;;;;10.63;5.60;;;8.00;74.70;;;;;;2270830;55;21080;-70
2023/12/19 12:14:17;;;;;;;6.85;4.32;;;8.10;74.10;;;;;;2501422;54;21010;-70
2023/12/19 12:16:43;;;;;;;8.65;4.95;;;8.10;74.20;;;;;;2260583;55;21959;-70
2023/12/19 12:19:22;;;;;;;7.25;4.40;;;8.20;74.20;;;;;;2489337;54;21102;-70
2023/12/19 12:21:49;;;;;;;8.93;4.97;;;8.20;73.80;;;;;;2260666;56;21943;-70
2023/12/19 12:24:23;;;;;;;8.07;4.75;;;8.30;73.90;;;;;;2489875;54;20935;-70
2023/12/19 12:27:09;;;;;;;9.18;5.07;;;8.30;73.60;;;;;;2488251;55;20966;-70
2023/12/19 12:29:36;;;;;;;10.07;5.50;;;8.30;73.30;;;;;;2489149;54;21015;-69
2023/12/19 12:32:02;;;;;;;8.40;5.53;;;8.40;73.60;;;;;;2261740;56;20983;-69
2023/12/19 12:34:35;;;;;;;9.38;5.40;;;8.40;73.60;;;;;;2484220;55;20971;-69
2023/12/19 12:37:01;;;;;;;;;;;8.40;73.30;;;;;;2264579;56;21448;-70
2023/12/19 12:39:27;;;;;;;7.40;4.85;;;8.40;72.20;;;;;;2261436;55;20089;-69
2023/12/19 12:42:27;;;;;;;10.02;6.20;;;8.50;73.30;;;;;;2491563;54;21006;-69
2023/12/19 12:45:01;;;;;;;9.40;5.32;;;8.50;72.60;;;;;;2536593;54;21019;-70
2023/12/19 12:47:28;;;;;;;7.90;5.10;;;8.50;73.10;;;;;;2300816;56;20962;-70
2023/12/19 12:50:04;;;;;;;9.13;4.68;;;8.50;73.30;;;;;;2536792;54;20967;-68
2023/12/19 12:52:32;;;;;;;8.30;4.70;;;8.50;73.10;;;;;;2299929;56;20979;-69
2023/12/19 12:55:03;;;;;;;7.62;5.00;;;8.60;73.50;;;;;;2299721;56;21031;-70
2023/12/19 12:57:31;;;;;;;9.40;5.25;;;8.60;73.40;;;;;;2537422;54;20960;-69
2023/12/19 12:59:57;;;;;;;8.02;5.22;;;8.60;73.50;;;;;;2299690;56;21616;-70
2023/12/19 13:02:25;;;;;;;8.10;5.22;;;8.70;73.60;;;;;;2300714;56;21006;-69
2023/12/19 13:04:51;;;;;;;11.77;6.65;;;8.70;73.70;;;;;;2299567;55;21408;-70